Time;durP1;ratioP1;P1;durP2;ratioP2;P2;SDS_P1;SDS_P2;PMS_P1;PMS_P2;Temp;Humidity;BMP_temperature;BMP_pressure;BME280_temperature;BME280_humidity;BME280_pressure;Samples;Min_cycle;Max_cycle;Signal;HPM_P1;HPM_P2
2022/05/25 00:01:17;;;;;;;9.88;8.20;;;;;;;20.09;72.27;94878.34;5063145;28;20583;-68
2022/05/25 00:03:44;;;;;;;11.10;9.88;;;;;;;19.91;71.79;94879.72;5063624;28;20751;-69
2022/05/25 00:06:11;;;;;;;7.47;6.93;;;;;;;19.38;72.98;94881.78;5063233;28;20210;-68
2022/05/25 00:08:40;;;;;;;10.38;7.82;;;;;;;19.13;74.00;94887.84;5062735;28;20648;-68
2022/05/25 00:11:07;;;;;;;8.10;7.40;;;;;;;19.15;74.14;94875.69;5060201;28;20654;-68
2022/05/25 00:13:36;;;;;;;9.32;6.85;;;;;;;19.33;73.46;94889.00;5062184;28;20591;-68
2022/05/25 00:16:03;;;;;;;9.18;8.00;;;;;;;19.19;74.58;94895.16;5056417;28;20201;-69
2022/05/25 00:18:30;;;;;;;16.80;8.23;;;;;;;19.76;72.70;94894.56;5062253;28;20255;-69
2022/05/25 00:20:56;;;;;;;7.55;6.85;;;;;;;20.02;71.56;94892.66;5061769;28;20314;-69
2022/05/25 00:23:22;;;;;;;7.20;6.55;;;;;;;20.10;71.04;94884.34;5060298;28;20230;-71
2022/05/25 00:25:49;;;;;;;6.70;6.15;;;;;;;20.25;70.78;94890.97;5061311;28;20220;-69
2022/05/25 00:28:17;;;;;;;7.28;6.57;;;;;;;20.23;69.81;94887.66;5062011;28;20282;-70
2022/05/25 00:30:47;;;;;;;12.48;11.18;;;;;;;20.25;70.56;94881.47;5059569;28;20201;-69
2022/05/25 00:33:14;;;;;;;10.23;9.15;;;;;;;20.36;69.92;94885.81;5061615;28;20226;-68
2022/05/25 00:35:42;;;;;;;12.73;10.02;;;;;;;20.26;69.86;94875.38;5059707;28;20671;-71
2022/05/25 00:38:10;;;;;;;9.85;8.85;;;;;;;19.97;70.31;94884.44;5058651;28;20202;-69
2022/05/25 00:40:39;;;;;;;7.60;6.82;;;;;;;19.58;71.63;94888.94;5059260;28;20290;-69
2022/05/25 00:43:06;;;;;;;9.27;7.78;;;;;;;19.81;71.36;94881.31;5062424;28;20230;-68
2022/05/25 00:45:37;;;;;;;9.23;8.00;;;;;;;19.81;71.11;94881.31;5059219;28;20255;-68
2022/05/25 00:48:08;;;;;;;9.80;8.90;;;;;;;19.48;72.72;94887.94;5062916;28;20198;-69
2022/05/25 00:53:16;;;;;;;8.88;7.55;;;;;;;19.89;71.31;94890.13;5061630;28;20907;-69
2022/05/25 00:55:43;;;;;;;6.53;6.05;;;;;;;20.16;70.06;94887.28;5061401;28;22193;-69
2022/05/25 00:58:10;;;;;;;14.50;6.93;;;;;;;20.02;69.83;94887.50;5062318;28;20263;-68
2022/05/25 01:00:37;;;;;;;7.35;6.65;;;;;;;19.76;70.11;94891.16;5060759;28;20230;-69
2022/05/25 01:03:08;;;;;;;8.20;7.47;;;;;;;19.86;71.26;94886.97;5062405;28;20707;-68
2022/05/25 01:05:40;;;;;;;7.55;6.90;;;;;;;19.90;70.59;94885.81;5060954;28;20206;-71
2022/05/25 01:08:21;;;;;;;11.85;7.75;;;;;;;19.91;69.44;94895.19;5060730;28;20225;-69
2022/05/25 01:11:00;;;;;;;8.38;7.68;;;;;;;19.80;69.73;94901.09;5057919;28;20679;-68
2022/05/25 01:13:35;;;;;;;7.28;6.78;;;;;;;19.75;70.34;94899.81;5061805;28;20288;-69
2022/05/25 01:16:12;;;;;;;7.03;6.55;;;;;;;19.75;70.57;94905.81;5060342;28;20234;-69
2022/05/25 01:18:49;;;;;;;9.65;7.40;;;;;;;19.62;70.97;94900.69;5061873;28;20209;-70
2022/05/25 01:21:22;;;;;;;7.55;6.88;;;;;;;19.94;69.55;94906.09;5060191;28;20229;-69
2022/05/25 01:24:25;;;;;;;9.13;6.82;;;;;;;19.88;69.22;94901.38;5059383;28;20236;-69
2022/05/25 01:27:12;;;;;;;6.47;5.90;;;;;;;19.79;69.58;94909.00;4977283;28;20259;-69
2022/05/25 01:29:48;;;;;;;22.25;18.17;;;;;;;19.74;70.61;94903.34;5053205;28;20198;-69
2022/05/25 01:32:22;;;;;;;20.48;15.00;;;;;;;19.82;70.40;94909.56;5058212;28;20198;-72
2022/05/25 01:34:55;;;;;;;11.38;10.32;;;;;;;19.81;69.61;94912.25;5059127;28;20193;-73
2022/05/25 01:37:28;;;;;;;10.52;8.50;;;;;;;19.59;70.63;94911.22;5056981;28;20291;-69
2022/05/25 01:40:01;;;;;;;12.52;11.10;;;;;;;19.24;71.30;94907.72;5060009;28;20334;-69
2022/05/25 01:42:32;;;;;;;15.82;11.05;;;;;;;19.42;72.17;94914.13;5060105;28;20758;-69
2022/05/25 01:45:04;;;;;;;8.18;7.38;;;;;;;19.47;71.17;94912.06;5061325;28;20205;-70
2022/05/25 01:47:34;;;;;;;9.57;8.68;;;;;;;19.59;70.83;94913.78;5062016;28;20229;-69
2022/05/25 01:50:06;;;;;;;14.05;8.07;;;;;;;19.48;70.34;94916.28;5062134;28;20239;-69
2022/05/25 01:52:41;;;;;;;9.10;7.18;;;;;;;19.37;70.44;94905.91;5061553;28;20209;-71
2022/05/25 01:55:13;;;;;;;8.27;7.22;;;;;;;19.30;71.47;94917.59;5060376;28;21423;-69
2022/05/25 01:57:44;;;;;;;8.65;8.02;;;;;;;19.44;70.52;94922.59;5061158;28;20236;-69
2022/05/25 02:00:26;;;;;;;7.28;6.78;;;;;;;19.42;70.69;94924.44;5058541;28;20209;-68
2022/05/25 02:05:41;;;;;;;8.60;7.97;;;;;;;18.68;72.02;94930.44;5060182;28;20229;-69
2022/05/25 02:08:14;;;;;;;9.05;8.18;;;;;;;18.20;74.34;94937.88;5059254;28;20214;-69
2022/05/25 02:10:54;;;;;;;9.45;8.65;;;;;;;18.32;75.38;94939.63;5060743;28;20195;-69
2022/05/25 02:13:31;;;;;;;13.82;8.25;;;;;;;17.93;76.26;94940.50;5058857;28;20742;-69
2022/05/25 02:16:16;;;;;;;10.00;8.98;;;;;;;17.45;77.67;94934.13;5060652;28;20282;-71
2022/05/25 02:18:50;;;;;;;10.73;9.68;;;;;;;17.14;79.63;94942.06;5061870;28;20198;-71
2022/05/25 02:21:21;;;;;;;10.00;9.27;;;;;;;17.29;79.50;94941.13;5059937;28;20712;-71
2022/05/25 02:23:53;;;;;;;10.05;9.23;;;;;;;17.50;78.38;94939.78;5061452;28;20224;-68
2022/05/25 02:26:27;;;;;;;9.18;8.48;;;;;;;17.52;78.29;94955.94;5058447;28;20878;-70
2022/05/25 02:29:18;;;;;;;10.57;9.57;;;;;;;17.65;78.42;94956.84;5059749;28;20731;-69
2022/05/25 02:31:51;;;;;;;8.55;7.95;;;;;;;18.28;75.05;94952.81;5061377;28;20194;-69
2022/05/25 02:34:21;;;;;;;9.30;8.43;;;;;;;18.62;74.48;94964.31;5062247;28;20764;-71
2022/05/25 02:36:50;;;;;;;9.85;8.95;;;;;;;18.62;73.43;94961.72;5061386;28;20198;-72
2022/05/25 02:39:17;;;;;;;9.30;8.50;;;;;;;18.80;73.29;94963.09;5060755;28;20197;-71
2022/05/25 02:41:49;;;;;;;9.60;8.65;;;;;;;18.83;72.68;94962.88;5059786;28;20825;-70
2022/05/25 02:44:16;;;;;;;8.52;7.93;;;;;;;18.77;72.75;94972.78;5063130;28;20310;-68
2022/05/25 02:46:43;;;;;;;10.90;8.57;;;;;;;18.76;72.90;94966.81;5063926;28;20235;-69
2022/05/25 02:49:11;;;;;;;11.82;9.10;;;;;;;18.62;73.53;94964.31;5065059;28;20677;-69
2022/05/25 02:51:39;;;;;;;9.05;8.25;;;;;;;18.43;73.56;94958.72;5063534;28;20247;-71
2022/05/25 02:54:07;;;;;;;13.98;8.65;;;;;;;18.54;74.57;94967.38;5065904;28;20197;-72
2022/05/25 02:56:34;;;;;;;10.25;9.02;;;;;;;18.21;74.51;94967.00;5064728;28;20625;-70
2022/05/25 02:59:01;;;;;;;10.05;8.98;;;;;;;18.30;75.35;94974.13;5064171;28;22140;-70
2022/05/25 03:01:28;;;;;;;10.57;9.57;;;;;;;18.41;74.23;94970.84;5063858;28;20229;-71
2022/05/25 03:03:55;;;;;;;10.38;9.57;;;;;;;18.00;75.12;94976.94;5065684;28;20237;-69
2022/05/25 03:06:23;;;;;;;9.88;9.10;;;;;;;17.84;76.13;94981.38;5064815;28;20624;-69
2022/05/25 03:08:50;;;;;;;9.57;8.77;;;;;;;18.00;75.91;94977.75;5065649;28;20290;-70
2022/05/25 03:11:17;;;;;;;11.65;9.32;;;;;;;18.29;74.42;94978.47;5065487;28;20198;-69
2022/05/25 03:13:47;;;;;;;9.95;9.02;;;;;;;18.64;74.52;94985.63;5065439;28;20201;-72
2022/05/25 03:16:15;;;;;;;12.45;9.68;;;;;;;18.86;73.32;94988.41;5065944;28;20605;-69
2022/05/25 03:18:42;;;;;;;10.30;9.30;;;;;;;19.04;72.62;94996.66;5065326;28;20209;-69
2022/05/25 03:21:09;;;;;;;11.98;9.10;;;;;;;18.85;72.57;94989.34;5064375;28;20294;-70
2022/05/25 03:23:38;;;;;;;9.63;8.77;;;;;;;19.26;71.30;95002.00;5065942;28;20253;-70
2022/05/25 03:26:05;;;;;;;8.70;7.88;;;;;;;19.42;70.22;94996.59;5064274;28;20275;-69
2022/05/25 03:28:32;;;;;;;11.70;8.50;;;;;;;19.53;69.99;95001.88;5066018;28;20201;-69
2022/05/25 03:30:59;;;;;;;12.93;8.05;;;;;;;19.83;69.24;95005.81;5065624;28;20198;-73
2022/05/25 03:33:26;;;;;;;9.43;8.57;;;;;;;20.13;67.92;95008.78;5063935;28;20275;-70
2022/05/25 03:35:53;;;;;;;10.00;9.15;;;;;;;20.37;66.77;95009.63;5064201;28;20286;-70
2022/05/25 03:38:19;;;;;;;11.40;8.30;;;;;;;20.45;66.14;95013.41;5065060;28;20283;-70
2022/05/25 03:40:49;;;;;;;14.93;9.07;;;;;;;20.47;66.36;95019.28;5065619;28;20263;-70
2022/05/25 03:43:18;;;;;;;9.23;8.38;;;;;;;20.45;66.66;95013.41;5066183;28;21677;-71
2022/05/25 03:45:45;;;;;;;17.08;10.68;;;;;;;20.44;66.78;95019.50;5064335;28;21729;-70
2022/05/25 03:48:12;;;;;;;29.67;23.48;;;;;;;20.37;66.41;95017.38;5063676;28;20311;-73
2022/05/25 03:50:40;;;;;;;36.83;26.83;;;;;;;20.38;66.37;95028.50;5064369;28;20604;-70
2022/05/25 03:53:08;;;;;;;23.30;20.13;;;;;;;20.37;65.99;95043.16;5063669;28;20254;-70
2022/05/25 03:55:36;;;;;;;33.10;24.35;;;;;;;20.30;66.60;95047.09;5063623;28;20233;-72
2022/05/25 03:58:05;;;;;;;44.72;30.10;;;;;;;20.18;66.88;95037.66;5064918;28;20723;-70
2022/05/25 04:00:32;;;;;;;30.05;22.02;;;;;;;20.48;66.89;95044.16;5064767;28;20202;-70
2022/05/25 04:03:02;;;;;;;22.02;19.63;;;;;;;20.85;66.42;95037.94;5064147;28;20260;-70
2022/05/25 04:05:29;;;;;;;30.73;25.45;;;;;;;21.12;64.55;95034.22;5064931;28;20194;-70
2022/05/25 04:07:58;;;;;;;28.80;25.35;;;;;;;21.15;64.60;95037.41;5063742;28;20233;-70
2022/05/25 04:10:26;;;;;;;25.90;23.17;;;;;;;21.43;63.74;95043.91;5064685;28;20213;-70
2022/05/25 04:12:53;;;;;;;38.42;22.27;;;;;;;21.59;64.00;95043.56;5063525;28;20216;-70
2022/05/25 04:15:24;;;;;;;27.27;21.85;;;;;;;21.61;63.30;95052.00;5064290;28;20248;-73
2022/05/25 04:17:51;;;;;;;31.05;23.52;;;;;;;21.56;63.24;95038.59;5063007;28;20346;-70
2022/05/25 04:20:19;;;;;;;38.85;26.90;;;;;;;21.61;63.35;95037.31;5064080;28;20261;-69
2022/05/25 04:22:47;;;;;;;38.10;25.52;;;;;;;21.78;63.31;95043.75;5064746;28;21780;-72
2022/05/25 04:25:17;;;;;;;26.90;21.65;;;;;;;21.96;63.04;95041.53;5063639;28;20232;-70
2022/05/25 04:27:46;;;;;;;25.90;19.65;;;;;;;22.10;62.16;95043.88;5063592;28;20278;-72
2022/05/25 04:30:17;;;;;;;18.48;16.17;;;;;;;22.20;62.39;95036.19;5061913;28;20233;-70
2022/05/25 04:32:45;;;;;;;25.35;19.17;;;;;;;22.18;61.31;95054.44;5063776;28;20213;-70
2022/05/25 04:35:14;;;;;;;19.10;16.92;;;;;;;22.05;61.63;95052.00;5063800;28;20225;-71
2022/05/25 04:37:56;;;;;;;26.75;13.52;;;;;;;21.58;62.70;95034.97;5064078;28;20292;-70
2022/05/25 04:40:26;;;;;;;17.73;13.63;;;;;;;21.71;63.07;95053.78;5063332;28;20202;-70
2022/05/25 04:42:54;;;;;;;44.83;30.98;;;;;;;21.79;62.69;95042.00;5063559;28;20208;-73
2022/05/25 04:45:22;;;;;;;15.85;10.40;;;;;;;21.19;65.23;95049.16;5063776;28;20661;-72
2022/05/25 04:47:50;;;;;;;16.60;10.23;;;;;;;20.12;69.06;95052.75;5063178;28;20672;-69
2022/05/25 04:50:19;;;;;;;13.10;11.82;;;;;;;20.38;68.46;95052.56;5063162;28;20233;-70
2022/05/25 04:52:46;;;;;;;12.93;11.07;;;;;;;20.46;67.97;95051.19;5062479;28;20233;-71
2022/05/25 04:57:19;;;;;;;14.10;11.55;;;;;;;20.47;67.66;95045.09;5063109;28;20592;-69
2022/05/25 04:58:01;;;;;;;12.50;11.32;;;;;;;21.13;66.19;95054.78;5063773;28;20201;-70
2022/05/25 05:00:28;;;;;;;16.80;14.70;;;;;;;21.25;65.09;95047.91;5061979;28;20205;-71
2022/05/25 05:02:57;;;;;;;17.15;13.45;;;;;;;21.52;64.70;95052.75;5062464;28;20221;-70
2022/05/25 05:05:23;;;;;;;18.58;13.60;;;;;;;21.71;63.99;95046.03;5062627;28;20225;-69
2022/05/25 05:07:50;;;;;;;12.70;11.13;;;;;;;22.11;62.81;95050.69;5063794;28;20723;-71
2022/05/25 05:10:17;;;;;;;15.63;10.43;;;;;;;22.67;61.32;95047.91;5063070;28;20310;-70
2022/05/25 05:12:44;;;;;;;17.42;9.65;;;;;;;22.89;59.99;95060.78;5063840;28;20271;-70
2022/05/25 05:15:12;;;;;;;13.05;10.05;;;;;;;24.18;56.24;95059.34;5062576;28;20285;-72
2022/05/25 05:17:38;;;;;;;15.13;10.25;;;;;;;26.27;51.72;95054.00;5062880;28;20308;-70
2022/05/25 05:20:08;;;;;;;16.05;9.73;;;;;;;28.18;45.70;95059.34;5061348;28;20225;-72
2022/05/25 05:22:35;;;;;;;11.50;8.80;;;;;;;30.22;41.18;95053.00;5062617;28;20202;-70
2022/05/25 05:25:02;;;;;;;11.77;7.15;;;;;;;30.00;40.64;95064.25;5062316;28;20723;-72
2022/05/25 05:27:29;;;;;;;10.75;7.57;;;;;;;31.60;38.66;95065.13;5063179;28;20213;-72
2022/05/25 05:30:00;;;;;;;13.02;8.85;;;;;;;31.88;36.88;95061.91;5061806;28;20239;-71
2022/05/25 05:32:27;;;;;;;8.55;7.75;;;;;;;33.16;35.71;95067.41;5063353;28;20208;-71
2022/05/25 05:34:54;;;;;;;11.95;8.60;;;;;;;32.80;34.58;95065.66;5062020;28;20205;-71
2022/05/25 05:37:27;;;;;;;13.65;9.20;;;;;;;32.90;34.78;95063.53;5061937;28;20194;-71
2022/05/25 05:39:57;;;;;;;11.75;9.30;;;;;;;32.54;35.43;95070.59;5060528;28;20224;-72
2022/05/25 05:42:26;;;;;;;8.82;8.02;;;;;;;31.97;36.71;95071.31;5061110;28;20673;-71
2022/05/25 05:44:55;;;;;;;17.15;8.27;;;;;;;32.31;37.08;95084.72;5059918;28;20648;-71
2022/05/25 05:47:25;;;;;;;16.40;7.97;;;;;;;32.83;35.27;95075.00;5061860;28;20307;-71
2022/05/25 05:49:52;;;;;;;10.40;8.55;;;;;;;32.75;35.76;95076.75;5060145;28;20208;-72
2022/05/25 05:52:19;;;;;;;18.15;10.95;;;;;;;33.06;34.60;95073.78;5061681;28;20225;-71
2022/05/25 05:54:47;;;;;;;9.95;9.25;;;;;;;33.96;33.38;95080.16;5062758;28;21265;-72
2022/05/25 05:57:15;;;;;;;11.73;8.85;;;;;;;33.75;33.34;95073.94;5063527;28;20758;-71
2022/05/25 05:59:42;;;;;;;11.90;9.13;;;;;;;33.76;33.55;95080.81;5062739;28;20223;-71
2022/05/25 06:02:09;;;;;;;12.98;9.63;;;;;;;32.22;35.63;95083.19;5063575;28;20240;-72
2022/05/25 06:04:35;;;;;;;11.95;9.70;;;;;;;31.63;37.00;95088.41;5063386;28;20261;-72
2022/05/25 06:07:03;;;;;;;11.27;10.18;;;;;;;30.65;38.76;95082.31;5063566;28;20201;-71
2022/05/25 06:09:30;;;;;;;9.73;8.82;;;;;;;30.79;38.35;95082.38;5063451;28;20794;-71
2022/05/25 06:11:58;;;;;;;11.95;9.57;;;;;;;30.66;39.57;95091.81;5063150;28;20975;-72
2022/05/25 06:14:25;;;;;;;20.33;10.35;;;;;;;31.25;38.31;95092.03;5063602;28;20233;-70
2022/05/25 06:19:37;;;;;;;11.13;8.90;;;;;;;30.13;40.37;95080.25;5065402;28;20752;-71
2022/05/25 06:22:07;;;;;;;15.75;9.93;;;;;;;29.16;42.62;95085.66;5067256;28;20330;-71
2022/05/25 06:24:37;;;;;;;11.05;9.85;;;;;;;30.03;40.59;95087.50;5068190;28;20225;-71
2022/05/25 06:27:08;;;;;;;15.40;9.55;;;;;;;30.48;40.71;95099.09;5067615;28;20714;-71
2022/05/25 06:29:36;;;;;;;11.52;10.07;;;;;;;30.31;39.93;95093.13;5066723;28;20566;-71
2022/05/25 06:32:04;;;;;;;13.70;9.55;;;;;;;29.25;43.06;95089.91;5068083;28;20230;-71
2022/05/25 06:34:31;;;;;;;13.98;10.20;;;;;;;28.89;43.96;95089.44;5065837;28;20217;-71
2022/05/25 06:36:58;;;;;;;13.65;10.90;;;;;;;28.31;45.62;95091.06;5065836;28;20233;-71
2022/05/25 06:39:24;;;;;;;15.13;11.52;;;;;;;28.23;44.98;95091.03;5066532;28;20237;-71
2022/05/25 06:41:51;;;;;;;14.95;10.45;;;;;;;28.97;43.64;95085.00;5067522;28;20289;-71
2022/05/25 06:44:19;;;;;;;16.90;10.07;;;;;;;28.88;44.45;95085.16;5067733;28;20229;-71
2022/05/25 06:46:46;;;;;;;18.30;11.50;;;;;;;29.51;42.77;95084.50;5067822;28;20244;-71
2022/05/25 06:49:17;;;;;;;13.48;11.15;;;;;;;29.58;42.37;95094.16;5065996;28;20928;-72
2022/05/25 06:51:44;;;;;;;12.23;10.93;;;;;;;29.39;43.86;95092.69;5065924;28;20213;-71
2022/05/25 06:54:13;;;;;;;10.32;9.25;;;;;;;29.18;43.96;95094.19;5066642;28;20682;-70
2022/05/25 06:56:40;;;;;;;13.48;10.45;;;;;;;28.36;45.80;95088.00;5064980;28;20234;-70
2022/05/25 06:59:07;;;;;;;12.05;10.88;;;;;;;28.18;46.59;95100.31;5066049;28;20225;-72
2022/05/25 07:01:36;;;;;;;11.18;10.05;;;;;;;28.19;46.40;95108.00;5066870;28;20212;-73
2022/05/25 07:04:03;;;;;;;20.77;10.43;;;;;;;28.02;47.13;95107.09;5066415;28;20239;-70
2022/05/25 07:06:30;;;;;;;14.25;9.60;;;;;;;27.97;46.76;95108.53;5067311;28;20762;-71
2022/05/25 07:08:57;;;;;;;17.23;11.43;;;;;;;27.71;46.66;95114.63;5064827;28;20202;-71
2022/05/25 07:11:24;;;;;;;13.32;10.23;;;;;;;27.97;47.60;95105.91;5067061;28;20206;-71
2022/05/25 07:13:51;;;;;;;14.75;10.18;;;;;;;28.19;46.18;95104.56;5065237;28;20664;-71
2022/05/25 07:16:20;;;;;;;15.25;12.75;;;;;;;27.88;46.89;95105.09;5065300;28;20742;-70
2022/05/25 07:18:49;;;;;;;17.10;10.90;;;;;;;27.47;47.49;95101.38;5065018;28;20311;-69
2022/05/25 07:21:17;;;;;;;14.40;11.25;;;;;;;27.23;48.20;95109.03;5065604;28;20293;-71
2022/05/25 07:23:47;;;;;;;16.58;11.10;;;;;;;27.33;48.74;95107.16;5064497;28;20354;-72
2022/05/25 07:26:14;;;;;;;23.75;11.35;;;;;;;27.65;47.61;95104.81;5064478;28;20261;-72
2022/05/25 07:28:40;;;;;;;14.25;10.80;;;;;;;27.68;47.04;95109.72;5065152;28;20286;-72
2022/05/25 07:31:10;;;;;;;15.18;9.60;;;;;;;27.24;48.59;95115.88;5065585;28;20204;-71
2022/05/25 07:33:41;;;;;;;13.05;9.95;;;;;;;27.57;47.42;95107.31;5065809;28;20314;-72
2022/05/25 07:36:11;;;;;;;14.02;10.00;;;;;;;27.59;46.60;95097.59;5066316;28;20753;-72
2022/05/25 07:38:42;;;;;;;13.73;9.80;;;;;;;27.77;47.66;95093.09;5064624;28;20202;-70
2022/05/25 07:41:10;;;;;;;10.55;9.45;;;;;;;27.75;47.38;95089.00;5065317;28;20789;-73
2022/05/25 07:43:39;;;;;;;17.63;9.98;;;;;;;27.89;47.63;95093.66;5065826;28;20267;-72
2022/05/25 07:46:06;;;;;;;23.88;11.68;;;;;;;28.05;48.20;95085.88;5066144;28;20225;-73
2022/05/25 07:48:33;;;;;;;14.93;10.65;;;;;;;27.39;48.13;95083.06;5065515;28;20646;-71
2022/05/25 07:51:00;;;;;;;11.40;9.57;;;;;;;27.17;49.45;95080.97;5065150;28;20201;-72
2022/05/25 07:56:12;;;;;;;16.67;14.93;;;;;;;27.20;48.77;95093.72;5065124;28;20685;-73
2022/05/25 07:58:39;;;;;;;17.58;9.43;;;;;;;27.53;48.40;95098.16;5064257;28;20299;-72
2022/05/25 08:01:12;;;;;;;10.60;9.35;;;;;;;27.30;48.63;95094.41;5064130;28;20198;-73
2022/05/25 08:06:23;;;;;;;15.45;9.57;;;;;;;27.14;48.97;95094.31;5064972;28;20240;-72
2022/05/25 08:08:52;;;;;;;10.18;9.20;;;;;;;27.16;49.74;95087.97;5064681;28;20194;-73
2022/05/25 08:11:22;;;;;;;14.07;9.68;;;;;;;27.51;47.69;95081.00;5064883;28;20216;-72
2022/05/25 08:13:53;;;;;;;14.73;9.27;;;;;;;27.44;48.52;95073.81;5065295;28;20204;-73
2022/05/25 08:16:20;;;;;;;10.10;7.95;;;;;;;27.55;49.03;95070.09;5064451;28;20282;-71
2022/05/25 08:18:47;;;;;;;15.45;10.82;;;;;;;27.13;47.95;95069.19;5064197;28;20637;-71
2022/05/25 08:21:14;;;;;;;10.95;9.00;;;;;;;27.30;48.89;95078.75;5063573;28;20326;-73
2022/05/25 08:23:40;;;;;;;11.68;9.15;;;;;;;27.18;48.41;95085.22;5064671;28;20700;-71
2022/05/25 08:26:08;;;;;;;11.15;9.23;;;;;;;27.31;49.33;95089.03;5064205;28;20333;-73
2022/05/25 08:28:35;;;;;;;11.38;10.20;;;;;;;27.28;49.42;95094.56;5065500;28;20197;-70
2022/05/25 08:31:02;;;;;;;11.20;10.02;;;;;;;27.25;48.63;95101.88;5063304;28;20696;-71
2022/05/25 08:33:29;;;;;;;10.80;9.50;;;;;;;27.48;48.77;95087.34;5064434;28;20222;-73
2022/05/25 08:35:56;;;;;;;19.83;9.70;;;;;;;27.78;48.41;95104.38;5062904;28;20831;-72
2022/05/25 08:38:23;;;;;;;10.40;9.38;;;;;;;28.10;47.53;95093.25;5063742;28;20765;-71
2022/05/25 08:40:52;;;;;;;10.68;8.73;;;;;;;28.17;46.70;95078.59;5063701;28;20636;-71
2022/05/25 08:43:25;;;;;;;12.98;10.27;;;;;;;27.77;47.14;95097.50;5064075;28;20267;-72
2022/05/25 08:45:58;;;;;;;13.85;9.15;;;;;;;27.64;47.33;95103.16;5063876;28;20239;-73
2022/05/25 08:48:25;;;;;;;14.38;9.88;;;;;;;27.77;48.31;95098.31;5064221;28;20217;-72
2022/05/25 08:50:54;;;;;;;217.63;151.52;;;;;;;28.11;47.42;95095.72;5063987;28;20250;-72
2022/05/25 08:53:24;;;;;;;28.35;23.02;;;;;;;28.21;46.62;95100.81;5064425;28;20197;-75
2022/05/25 08:55:59;;;;;;;17.75;10.60;;;;;;;28.13;47.08;95103.41;5064190;28;20193;-73
2022/05/25 08:58:36;;;;;;;18.80;10.80;;;;;;;28.54;46.12;95090.47;5064021;28;20206;-72
2022/05/25 09:01:06;;;;;;;13.25;9.88;;;;;;;28.85;46.04;95099.38;5063839;28;20197;-72
2022/05/25 09:03:44;;;;;;;13.65;10.95;;;;;;;28.70;45.67;95095.75;5063780;28;20213;-72
2022/05/25 09:06:18;;;;;;;13.07;9.32;;;;;;;28.73;45.06;95090.19;5063932;28;20255;-71
2022/05/25 09:08:55;;;;;;;12.10;8.57;;;;;;;29.02;45.63;95095.78;5064149;28;20198;-73
2022/05/25 09:11:26;;;;;;;9.98;9.13;;;;;;;28.90;45.53;95089.25;5063415;28;20789;-72
2022/05/25 09:13:59;;;;;;;12.77;9.25;;;;;;;28.68;45.91;95087.25;5064247;28;20210;-71
2022/05/25 09:16:28;;;;;;;12.55;9.30;;;;;;;28.49;46.42;95087.50;5063177;28;20287;-71
2022/05/25 09:19:02;;;;;;;15.43;8.60;;;;;;;28.82;46.02;95096.28;5063076;28;20249;-72
2022/05/25 09:21:32;;;;;;;12.27;8.93;;;;;;;29.13;45.21;95096.47;5062887;28;20233;-72
2022/05/25 09:24:04;;;;;;;17.45;9.80;;;;;;;28.95;44.44;95101.88;5063972;28;20203;-74
2022/05/25 09:26:32;;;;;;;9.60;8.65;;;;;;;28.78;45.69;95100.97;5063504;28;20751;-71
2022/05/25 09:29:04;;;;;;;15.75;9.02;;;;;;;28.53;45.83;95102.72;5063529;28;20200;-72
2022/05/25 09:31:50;;;;;;;16.65;9.75;;;;;;;28.56;46.23;95099.78;5062117;28;20208;-71
2022/05/25 09:34:29;;;;;;;16.15;11.48;;;;;;;29.03;45.05;95101.84;5059770;28;20229;-72
2022/05/25 09:37:08;;;;;;;16.27;11.68;;;;;;;29.15;44.42;95094.50;5062907;28;20205;-71
2022/05/25 09:39:40;;;;;;;17.27;9.73;;;;;;;29.29;44.23;95096.44;5063523;28;20713;-71
2022/05/25 09:42:07;;;;;;;14.13;9.43;;;;;;;29.38;44.19;95085.00;5061937;28;20700;-71
2022/05/25 09:44:35;;;;;;;15.70;9.63;;;;;;;29.34;44.52;95083.69;5063401;28;20210;-71
2022/05/25 09:47:06;;;;;;;13.38;9.27;;;;;;;29.48;44.19;95080.41;5063184;28;20204;-72
2022/05/25 09:49:39;;;;;;;18.73;9.63;;;;;;;29.27;45.22;95086.13;5062903;28;20217;-72
2022/05/25 09:52:13;;;;;;;18.67;9.88;;;;;;;29.52;43.90;95084.34;5063531;28;20212;-72
2022/05/25 09:54:45;;;;;;;13.55;8.90;;;;;;;29.81;43.12;95065.44;5061725;28;20676;-71
2022/05/25 09:57:22;;;;;;;16.50;7.97;;;;;;;30.07;42.91;95062.59;5062714;28;20198;-72
2022/05/25 09:59:56;;;;;;;20.20;9.80;;;;;;;30.28;42.59;95054.94;5062728;28;20892;-72
2022/05/25 10:02:28;;;;;;;13.32;12.18;;;;;;;30.51;42.02;95051.53;5062274;28;20200;-71
2022/05/25 10:04:56;;;;;;;16.33;9.75;;;;;;;30.46;41.92;95060.72;5062280;28;20198;-72
2022/05/25 10:07:31;;;;;;;13.25;9.27;;;;;;;30.35;41.97;95042.78;5062379;28;20201;-70
2022/05/25 10:10:02;;;;;;;13.95;9.60;;;;;;;30.24;42.37;95053.66;5062610;28;20186;-72
2022/05/25 10:12:32;;;;;;;13.15;9.82;;;;;;;30.36;42.36;95054.91;5061494;28;20209;-73
2022/05/25 10:15:05;;;;;;;14.30;9.73;;;;;;;30.25;42.77;95044.78;5062346;28;20584;-71
2022/05/25 10:17:37;;;;;;;12.35;8.93;;;;;;;30.03;43.47;95048.19;5061097;28;20255;-70
2022/05/25 10:20:20;;;;;;;13.65;9.20;;;;;;;30.10;43.25;95057.81;5062015;28;20205;-72
2022/05/25 10:22:50;;;;;;;13.77;8.82;;;;;;;30.15;42.24;95057.31;5063999;28;20225;-71
2022/05/25 10:25:27;;;;;;;15.10;9.00;;;;;;;29.90;42.58;95053.13;5061361;28;20774;-72
2022/05/25 10:27:55;;;;;;;18.77;9.35;;;;;;;29.91;43.30;95054.78;5061778;28;20200;-71
2022/05/25 10:38:51;;;;;;;15.23;9.20;;;;;;;30.73;41.80;95027.16;5060819;28;20232;-77
2022/05/25 10:41:41;;;;;;;12.25;8.55;;;;;;;30.74;40.49;95026.16;5060924;28;20209;-78
2022/05/25 10:44:15;;;;;;;12.25;8.32;;;;;;;30.37;40.83;95011.97;5060556;28;20259;-78
2022/05/25 10:46:52;;;;;;;25.63;9.77;;;;;;;30.09;41.62;95016.88;5059902;28;20658;-77
2022/05/25 10:49:26;;;;;;;16.42;8.13;;;;;;;30.21;41.36;95014.66;5060804;28;20202;-75
2022/05/25 10:51:59;;;;;;;12.23;8.50;;;;;;;30.16;40.72;95017.00;5060406;28;20194;-76
2022/05/25 10:54:52;;;;;;;15.93;8.90;;;;;;;30.05;41.32;95020.81;5060772;28;20251;-75
2022/05/25 10:57:49;;;;;;;17.58;7.97;;;;;;;30.03;40.52;95009.69;5061135;28;20293;-77
2022/05/25 11:00:20;;;;;;;14.60;8.02;;;;;;;30.24;41.35;95003.84;5060449;28;20282;-77
2022/05/25 11:03:20;;;;;;;14.32;7.65;;;;;;;30.30;39.36;95003.16;5060167;28;20205;-75
2022/05/25 11:05:55;;;;;;;15.52;10.07;;;;;;;30.59;40.65;94999.06;5062972;28;20356;-76
2022/05/25 11:08:36;;;;;;;11.82;8.90;;;;;;;30.76;39.60;94992.69;5064921;28;20284;-76
2022/05/25 11:11:12;;;;;;;13.90;7.45;;;;;;;31.15;39.48;94996.97;5063724;28;20673;-76
2022/05/25 11:14:06;;;;;;;18.67;7.20;;;;;;;31.11;38.20;94984.22;5066480;28;20630;-75
2022/05/25 11:16:42;;;;;;;14.32;7.10;;;;;;;31.25;37.13;94992.28;5065915;28;20699;-76
2022/05/25 11:19:31;;;;;;;13.90;7.22;;;;;;;31.09;37.71;94994.03;5065933;28;20692;-76
2022/05/25 11:22:10;;;;;;;11.93;7.05;;;;;;;30.93;37.42;94983.72;5064886;28;20723;-76
2022/05/25 11:24:50;;;;;;;121.50;88.07;;;;;;;30.88;37.44;94980.78;5066181;28;20217;-76
2022/05/25 11:27:40;;;;;;;8.73;7.10;;;;;;;30.90;37.61;94978.81;5065632;28;20254;-77
2022/05/25 11:30:16;;;;;;;11.10;6.40;;;;;;;31.04;36.09;94979.81;5066288;28;20592;-77
2022/05/25 11:33:03;;;;;;;16.67;8.38;;;;;;;31.34;36.15;94978.06;5062898;28;20205;-77
2022/05/25 11:35:51;;;;;;;18.35;6.20;;;;;;;31.39;34.58;94978.34;5064524;28;20213;-78
2022/05/25 11:38:39;;;;;;;11.40;5.93;;;;;;;31.42;34.51;94978.00;5064930;28;20198;-78
2022/05/25 11:41:22;;;;;;;17.20;5.72;;;;;;;31.61;36.08;94971.38;5065661;28;20194;-77
2022/05/25 11:44:03;;;;;;;18.05;8.70;;;;;;;31.87;34.16;94965.66;5065685;28;20202;-77
2022/05/25 11:46:40;;;;;;;10.32;6.85;;;;;;;32.03;32.77;94966.25;5062972;28;20292;-77
2022/05/25 11:49:32;;;;;;;14.98;6.95;;;;;;;32.11;34.78;94957.44;5064607;28;20295;-78
2022/05/25 11:52:14;;;;;;;13.68;7.95;;;;;;;32.17;33.05;94956.69;5065026;28;20237;-77
2022/05/25 11:54:53;;;;;;;12.55;6.13;;;;;;;32.07;32.96;94957.00;5063899;28;20205;-78
2022/05/25 11:57:28;;;;;;;10.52;4.57;;;;;;;31.88;31.54;94952.34;5063376;28;20270;-77
2022/05/25 12:00:09;;;;;;;10.63;5.50;;;;;;;32.08;31.88;94939.41;5065430;28;20201;-78
2022/05/25 12:02:50;;;;;;;13.25;8.88;;;;;;;32.17;31.41;94946.19;5064504;28;20210;-77
2022/05/25 12:05:24;;;;;;;16.08;6.90;;;;;;;32.18;30.98;94941.72;5063900;28;20213;-78